sensor_id;sensor_type;location;lat;lon;timestamp;P1;durP1;ratioP1;P2;durP2;ratioP2
46288;SDS011;32022;46.158;14.604;2022-07-06T00:01:28;6.82;;;4.30;;
46288;SDS011;32022;46.158;14.604;2022-07-06T00:03:54;7.03;;;4.25;;
46288;SDS011;32022;46.158;14.604;2022-07-06T00:06:19;6.88;;;4.65;;
46288;SDS011;32022;46.158;14.604;2022-07-06T00:08:44;6.75;;;4.30;;
46288;SDS011;32022;46.158;14.604;2022-07-06T00:11:10;5.57;;;3.63;;
46288;SDS011;32022;46.158;14.604;2022-07-06T00:13:35;6.50;;;4.00;;
46288;SDS011;32022;46.158;14.604;2022-07-06T00:16:00;6.10;;;3.60;;
46288;SDS011;32022;46.158;14.604;2022-07-06T00:18:26;5.87;;;3.33;;
46288;SDS011;32022;46.158;14.604;2022-07-06T00:20:51;5.88;;;3.90;;
46288;SDS011;32022;46.158;14.604;2022-07-06T00:23:16;6.13;;;3.70;;
46288;SDS011;32022;46.158;14.604;2022-07-06T00:25:41;6.05;;;3.53;;
46288;SDS011;32022;46.158;14.604;2022-07-06T00:28:07;6.15;;;3.78;;
46288;SDS011;32022;46.158;14.604;2022-07-06T00:30:32;5.60;;;3.27;;
46288;SDS011;32022;46.158;14.604;2022-07-06T00:32:57;6.80;;;3.73;;
46288;SDS011;32022;46.158;14.604;2022-07-06T00:35:23;6.05;;;3.25;;
46288;SDS011;32022;46.158;14.604;2022-07-06T00:37:49;5.30;;;3.00;;
46288;SDS011;32022;46.158;14.604;2022-07-06T00:40:14;5.50;;;3.22;;
46288;SDS011;32022;46.158;14.604;2022-07-06T00:42:43;5.63;;;3.30;;
46288;SDS011;32022;46.158;14.604;2022-07-06T00:45:08;6.20;;;3.08;;
46288;SDS011;32022;46.158;14.604;2022-07-06T00:47:34;5.32;;;2.88;;
46288;SDS011;32022;46.158;14.604;2022-07-06T00:49:59;4.95;;;2.78;;
46288;SDS011;32022;46.158;14.604;2022-07-06T00:52:41;4.95;;;2.75;;
46288;SDS011;32022;46.158;14.604;2022-07-06T00:55:06;4.10;;;2.40;;
46288;SDS011;32022;46.158;14.604;2022-07-06T00:57:32;4.38;;;2.60;;
46288;SDS011;32022;46.158;14.604;2022-07-06T00:59:57;5.25;;;2.53;;
46288;SDS011;32022;46.158;14.604;2022-07-06T01:02:23;4.25;;;2.42;;
46288;SDS011;32022;46.158;14.604;2022-07-06T01:04:48;4.38;;;2.40;;
46288;SDS011;32022;46.158;14.604;2022-07-06T01:07:13;3.97;;;2.17;;
46288;SDS011;32022;46.158;14.604;2022-07-06T01:09:39;5.07;;;2.63;;
46288;SDS011;32022;46.158;14.604;2022-07-06T01:12:04;4.70;;;2.37;;
46288;SDS011;32022;46.158;14.604;2022-07-06T01:14:30;4.10;;;2.20;;
46288;SDS011;32022;46.158;14.604;2022-07-06T01:16:55;4.40;;;2.20;;
46288;SDS011;32022;46.158;14.604;2022-07-06T01:19:21;4.05;;;2.15;;
46288;SDS011;32022;46.158;14.604;2022-07-06T01:21:46;3.95;;;1.80;;
46288;SDS011;32022;46.158;14.604;2022-07-06T01:24:11;3.50;;;1.80;;
46288;SDS011;32022;46.158;14.604;2022-07-06T01:26:37;3.65;;;1.80;;
46288;SDS011;32022;46.158;14.604;2022-07-06T01:29:02;3.58;;;1.85;;
46288;SDS011;32022;46.158;14.604;2022-07-06T01:31:27;3.88;;;1.85;;
46288;SDS011;32022;46.158;14.604;2022-07-06T01:33:53;3.45;;;1.88;;
46288;SDS011;32022;46.158;14.604;2022-07-06T01:36:19;3.67;;;1.73;;
46288;SDS011;32022;46.158;14.604;2022-07-06T01:41:10;3.50;;;1.60;;
46288;SDS011;32022;46.158;14.604;2022-07-06T01:43:35;2.80;;;1.40;;
46288;SDS011;32022;46.158;14.604;2022-07-06T01:46:01;2.95;;;1.42;;
46288;SDS011;32022;46.158;14.604;2022-07-06T01:48:26;3.50;;;1.57;;
46288;SDS011;32022;46.158;14.604;2022-07-06T01:50:51;3.00;;;1.30;;
46288;SDS011;32022;46.158;14.604;2022-07-06T01:53:16;2.90;;;1.30;;
46288;SDS011;32022;46.158;14.604;2022-07-06T01:55:42;2.60;;;1.30;;
46288;SDS011;32022;46.158;14.604;2022-07-06T01:58:07;3.80;;;1.40;;
46288;SDS011;32022;46.158;14.604;2022-07-06T02:00:32;2.20;;;1.03;;
46288;SDS011;32022;46.158;14.604;2022-07-06T02:02:57;2.38;;;1.10;;
46288;SDS011;32022;46.158;14.604;2022-07-06T02:05:22;2.40;;;1.10;;
46288;SDS011;32022;46.158;14.604;2022-07-06T02:07:48;2.80;;;1.20;;
46288;SDS011;32022;46.158;14.604;2022-07-06T02:10:13;2.10;;;1.10;;
46288;SDS011;32022;46.158;14.604;2022-07-06T02:12:38;2.23;;;1.10;;
46288;SDS011;32022;46.158;14.604;2022-07-06T02:15:03;2.40;;;1.10;;
46288;SDS011;32022;46.158;14.604;2022-07-06T02:17:29;2.70;;;1.02;;
46288;SDS011;32022;46.158;14.604;2022-07-06T02:19:54;2.20;;;1.00;;
46288;SDS011;32022;46.158;14.604;2022-07-06T02:22:19;2.03;;;0.80;;
46288;SDS011;32022;46.158;14.604;2022-07-06T02:24:44;2.10;;;1.05;;
46288;SDS011;32022;46.158;14.604;2022-07-06T02:27:10;2.20;;;1.00;;
46288;SDS011;32022;46.158;14.604;2022-07-06T02:29:35;2.03;;;0.90;;
46288;SDS011;32022;46.158;14.604;2022-07-06T02:32:00;2.20;;;1.00;;
46288;SDS011;32022;46.158;14.604;2022-07-06T02:34:25;1.93;;;0.87;;
46288;SDS011;32022;46.158;14.604;2022-07-06T02:36:51;1.95;;;0.88;;
46288;SDS011;32022;46.158;14.604;2022-07-06T02:39:16;1.60;;;0.80;;
46288;SDS011;32022;46.158;14.604;2022-07-06T02:41:41;1.47;;;0.70;;
46288;SDS011;32022;46.158;14.604;2022-07-06T02:44:06;2.07;;;0.87;;
46288;SDS011;32022;46.158;14.604;2022-07-06T02:46:31;1.48;;;0.70;;
46288;SDS011;32022;46.158;14.604;2022-07-06T02:48:57;1.60;;;0.70;;
46288;SDS011;32022;46.158;14.604;2022-07-06T02:51:22;1.00;;;0.60;;
46288;SDS011;32022;46.158;14.604;2022-07-06T02:53:48;1.33;;;0.70;;
46288;SDS011;32022;46.158;14.604;2022-07-06T02:56:14;1.00;;;0.60;;
46288;SDS011;32022;46.158;14.604;2022-07-06T02:58:39;1.15;;;0.60;;
46288;SDS011;32022;46.158;14.604;2022-07-06T03:01:04;1.40;;;0.60;;
46288;SDS011;32022;46.158;14.604;2022-07-06T03:03:29;1.10;;;0.60;;
46288;SDS011;32022;46.158;14.604;2022-07-06T03:05:54;1.23;;;0.70;;
46288;SDS011;32022;46.158;14.604;2022-07-06T03:08:20;1.40;;;0.70;;
46288;SDS011;32022;46.158;14.604;2022-07-06T03:10:45;0.90;;;0.57;;
46288;SDS011;32022;46.158;14.604;2022-07-06T03:13:10;1.33;;;0.70;;
46288;SDS011;32022;46.158;14.604;2022-07-06T03:15:35;1.17;;;0.70;;
46288;SDS011;32022;46.158;14.604;2022-07-06T03:18:01;2.60;;;0.70;;
46288;SDS011;32022;46.158;14.604;2022-07-06T03:20:26;1.10;;;0.60;;
46288;SDS011;32022;46.158;14.604;2022-07-06T03:22:51;0.93;;;0.50;;
46288;SDS011;32022;46.158;14.604;2022-07-06T03:25:16;1.02;;;0.60;;
46288;SDS011;32022;46.158;14.604;2022-07-06T03:27:42;1.52;;;0.52;;
46288;SDS011;32022;46.158;14.604;2022-07-06T03:30:07;0.60;;;0.40;;
46288;SDS011;32022;46.158;14.604;2022-07-06T03:32:32;0.85;;;0.50;;
46288;SDS011;32022;46.158;14.604;2022-07-06T03:34:57;1.08;;;0.55;;
46288;SDS011;32022;46.158;14.604;2022-07-06T03:37:23;0.63;;;0.50;;
46288;SDS011;32022;46.158;14.604;2022-07-06T03:39:48;1.00;;;0.57;;
46288;SDS011;32022;46.158;14.604;2022-07-06T03:42:13;0.67;;;0.50;;
46288;SDS011;32022;46.158;14.604;2022-07-06T03:44:38;0.60;;;0.40;;
46288;SDS011;32022;46.158;14.604;2022-07-06T03:47:03;0.77;;;0.40;;
46288;SDS011;32022;46.158;14.604;2022-07-06T03:49:29;1.10;;;0.50;;
46288;SDS011;32022;46.158;14.604;2022-07-06T03:51:54;1.40;;;0.68;;
46288;SDS011;32022;46.158;14.604;2022-07-06T03:54:19;0.52;;;0.40;;
46288;SDS011;32022;46.158;14.604;2022-07-06T03:56:45;0.70;;;0.40;;
46288;SDS011;32022;46.158;14.604;2022-07-06T03:59:10;0.57;;;0.40;;
46288;SDS011;32022;46.158;14.604;2022-07-06T04:01:35;0.65;;;0.40;;
46288;SDS011;32022;46.158;14.604;2022-07-06T04:04:00;1.05;;;0.55;;
46288;SDS011;32022;46.158;14.604;2022-07-06T04:06:26;0.68;;;0.47;;
46288;SDS011;32022;46.158;14.604;2022-07-06T04:08:51;0.55;;;0.40;;
46288;SDS011;32022;46.158;14.604;2022-07-06T04:11:17;0.65;;;0.50;;
46288;SDS011;32022;46.158;14.604;2022-07-06T04:13:42;0.73;;;0.40;;
46288;SDS011;32022;46.158;14.604;2022-07-06T04:16:07;0.70;;;0.40;;
46288;SDS011;32022;46.158;14.604;2022-07-06T04:18:33;0.52;;;0.40;;
46288;SDS011;32022;46.158;14.604;2022-07-06T04:20:58;1.00;;;0.40;;
46288;SDS011;32022;46.158;14.604;2022-07-06T04:23:23;0.47;;;0.30;;
46288;SDS011;32022;46.158;14.604;2022-07-06T04:25:49;0.70;;;0.40;;
46288;SDS011;32022;46.158;14.604;2022-07-06T04:28:14;0.55;;;0.35;;
46288;SDS011;32022;46.158;14.604;2022-07-06T04:30:39;0.63;;;0.40;;
46288;SDS011;32022;46.158;14.604;2022-07-06T04:33:04;0.73;;;0.47;;
46288;SDS011;32022;46.158;14.604;2022-07-06T04:35:30;1.20;;;0.40;;
46288;SDS011;32022;46.158;14.604;2022-07-06T04:37:55;0.30;;;0.30;;
46288;SDS011;32022;46.158;14.604;2022-07-06T04:40:20;0.70;;;0.40;;
46288;SDS011;32022;46.158;14.604;2022-07-06T04:42:45;0.50;;;0.30;;
46288;SDS011;32022;46.158;14.604;2022-07-06T04:45:11;0.77;;;0.40;;
46288;SDS011;32022;46.158;14.604;2022-07-06T04:47:36;0.50;;;0.40;;
46288;SDS011;32022;46.158;14.604;2022-07-06T04:50:02;0.50;;;0.35;;
46288;SDS011;32022;46.158;14.604;2022-07-06T04:52:27;0.82;;;0.40;;
46288;SDS011;32022;46.158;14.604;2022-07-06T04:54:54;0.63;;;0.40;;
46288;SDS011;32022;46.158;14.604;2022-07-06T04:57:19;0.55;;;0.40;;
46288;SDS011;32022;46.158;14.604;2022-07-06T04:59:44;0.40;;;0.30;;
46288;SDS011;32022;46.158;14.604;2022-07-06T05:02:09;0.60;;;0.40;;
46288;SDS011;32022;46.158;14.604;2022-07-06T05:04:35;0.73;;;0.40;;
46288;SDS011;32022;46.158;14.604;2022-07-06T05:07:00;0.88;;;0.40;;
46288;SDS011;32022;46.158;14.604;2022-07-06T05:09:25;0.83;;;0.40;;
46288;SDS011;32022;46.158;14.604;2022-07-06T05:11:50;0.30;;;0.30;;
46288;SDS011;32022;46.158;14.604;2022-07-06T05:14:16;0.68;;;0.30;;
46288;SDS011;32022;46.158;14.604;2022-07-06T05:16:41;0.73;;;0.50;;
46288;SDS011;32022;46.158;14.604;2022-07-06T05:19:06;0.40;;;0.30;;
46288;SDS011;32022;46.158;14.604;2022-07-06T05:21:31;0.43;;;0.35;;
46288;SDS011;32022;46.158;14.604;2022-07-06T05:23:57;0.98;;;0.40;;
46288;SDS011;32022;46.158;14.604;2022-07-06T05:26:22;0.93;;;0.40;;
46288;SDS011;32022;46.158;14.604;2022-07-06T05:28:47;0.55;;;0.40;;
46288;SDS011;32022;46.158;14.604;2022-07-06T05:31:12;0.47;;;0.40;;
46288;SDS011;32022;46.158;14.604;2022-07-06T05:33:38;0.47;;;0.32;;
46288;SDS011;32022;46.158;14.604;2022-07-06T05:36:03;0.90;;;0.40;;
46288;SDS011;32022;46.158;14.604;2022-07-06T05:38:28;1.38;;;0.50;;
46288;SDS011;32022;46.158;14.604;2022-07-06T05:40:54;2.88;;;0.50;;
46288;SDS011;32022;46.158;14.604;2022-07-06T05:43:19;0.75;;;0.40;;
46288;SDS011;32022;46.158;14.604;2022-07-06T05:45:44;1.63;;;0.50;;
46288;SDS011;32022;46.158;14.604;2022-07-06T05:48:09;1.00;;;0.50;;
46288;SDS011;32022;46.158;14.604;2022-07-06T05:50:53;0.57;;;0.35;;
46288;SDS011;32022;46.158;14.604;2022-07-06T05:53:19;0.80;;;0.40;;
46288;SDS011;32022;46.158;14.604;2022-07-06T05:55:44;1.40;;;0.70;;
46288;SDS011;32022;46.158;14.604;2022-07-06T05:58:09;1.20;;;0.50;;
46288;SDS011;32022;46.158;14.604;2022-07-06T06:00:35;1.75;;;0.60;;
46288;SDS011;32022;46.158;14.604;2022-07-06T06:03:00;1.20;;;0.50;;
46288;SDS011;32022;46.158;14.604;2022-07-06T06:05:25;1.25;;;0.60;;
46288;SDS011;32022;46.158;14.604;2022-07-06T06:07:50;1.83;;;0.80;;
46288;SDS011;32022;46.158;14.604;2022-07-06T06:10:17;2.03;;;0.80;;
46288;SDS011;32022;46.158;14.604;2022-07-06T06:12:43;1.55;;;0.80;;
46288;SDS011;32022;46.158;14.604;2022-07-06T06:15:09;2.22;;;0.80;;
46288;SDS011;32022;46.158;14.604;2022-07-06T06:17:35;1.70;;;0.90;;
46288;SDS011;32022;46.158;14.604;2022-07-06T06:20:00;1.83;;;0.85;;
46288;SDS011;32022;46.158;14.604;2022-07-06T06:22:25;5.10;;;1.00;;
46288;SDS011;32022;46.158;14.604;2022-07-06T06:24:50;3.43;;;1.20;;
46288;SDS011;32022;46.158;14.604;2022-07-06T06:27:16;2.88;;;1.10;;
46288;SDS011;32022;46.158;14.604;2022-07-06T06:29:41;3.10;;;1.40;;
46288;SDS011;32022;46.158;14.604;2022-07-06T06:32:09;2.30;;;1.20;;
46288;SDS011;32022;46.158;14.604;2022-07-06T06:34:35;3.03;;;1.27;;
46288;SDS011;32022;46.158;14.604;2022-07-06T06:37:00;3.08;;;1.40;;
46288;SDS011;32022;46.158;14.604;2022-07-06T06:39:25;3.00;;;1.37;;
46288;SDS011;32022;46.158;14.604;2022-07-06T06:41:50;3.67;;;1.87;;
46288;SDS011;32022;46.158;14.604;2022-07-06T06:44:16;3.23;;;1.70;;
46288;SDS011;32022;46.158;14.604;2022-07-06T06:46:42;4.55;;;1.63;;
46288;SDS011;32022;46.158;14.604;2022-07-06T06:49:08;3.80;;;1.70;;
46288;SDS011;32022;46.158;14.604;2022-07-06T06:51:33;3.83;;;1.50;;
46288;SDS011;32022;46.158;14.604;2022-07-06T06:53:58;2.67;;;1.33;;
46288;SDS011;32022;46.158;14.604;2022-07-06T06:56:24;3.88;;;1.60;;
46288;SDS011;32022;46.158;14.604;2022-07-06T06:58:49;2.40;;;1.27;;
46288;SDS011;32022;46.158;14.604;2022-07-06T07:01:14;3.50;;;1.35;;
46288;SDS011;32022;46.158;14.604;2022-07-06T07:03:39;3.87;;;1.40;;
46288;SDS011;32022;46.158;14.604;2022-07-06T07:06:05;3.23;;;1.30;;
46288;SDS011;32022;46.158;14.604;2022-07-06T07:08:30;4.18;;;1.50;;
46288;SDS011;32022;46.158;14.604;2022-07-06T07:10:55;3.13;;;1.37;;
46288;SDS011;32022;46.158;14.604;2022-07-06T07:13:20;3.13;;;1.20;;
46288;SDS011;32022;46.158;14.604;2022-07-06T07:15:46;3.80;;;1.25;;
46288;SDS011;32022;46.158;14.604;2022-07-06T07:18:11;4.20;;;1.30;;
46288;SDS011;32022;46.158;14.604;2022-07-06T07:20:36;3.60;;;1.20;;
46288;SDS011;32022;46.158;14.604;2022-07-06T07:23:01;5.53;;;1.40;;
46288;SDS011;32022;46.158;14.604;2022-07-06T07:25:27;4.32;;;1.20;;
46288;SDS011;32022;46.158;14.604;2022-07-06T07:27:52;6.40;;;1.40;;
46288;SDS011;32022;46.158;14.604;2022-07-06T07:30:18;2.92;;;1.10;;
46288;SDS011;32022;46.158;14.604;2022-07-06T07:32:43;5.83;;;1.43;;
46288;SDS011;32022;46.158;14.604;2022-07-06T07:35:08;4.32;;;1.40;;
46288;SDS011;32022;46.158;14.604;2022-07-06T07:37:34;6.63;;;2.03;;
46288;SDS011;32022;46.158;14.604;2022-07-06T07:39:59;7.07;;;1.77;;
46288;SDS011;32022;46.158;14.604;2022-07-06T07:42:24;4.85;;;1.85;;
46288;SDS011;32022;46.158;14.604;2022-07-06T07:44:50;7.30;;;2.23;;
46288;SDS011;32022;46.158;14.604;2022-07-06T07:47:15;7.77;;;1.83;;
46288;SDS011;32022;46.158;14.604;2022-07-06T07:49:40;6.43;;;2.00;;
46288;SDS011;32022;46.158;14.604;2022-07-06T07:52:06;7.30;;;1.85;;
46288;SDS011;32022;46.158;14.604;2022-07-06T07:54:31;7.10;;;1.80;;
46288;SDS011;32022;46.158;14.604;2022-07-06T07:56:56;7.10;;;2.10;;
46288;SDS011;32022;46.158;14.604;2022-07-06T07:59:22;6.50;;;1.88;;
46288;SDS011;32022;46.158;14.604;2022-07-06T08:01:47;4.60;;;1.73;;
46288;SDS011;32022;46.158;14.604;2022-07-06T08:04:12;4.00;;;1.73;;
46288;SDS011;32022;46.158;14.604;2022-07-06T08:06:38;6.47;;;1.67;;
46288;SDS011;32022;46.158;14.604;2022-07-06T08:09:03;5.53;;;1.90;;
46288;SDS011;32022;46.158;14.604;2022-07-06T08:11:30;7.13;;;1.70;;
46288;SDS011;32022;46.158;14.604;2022-07-06T08:13:55;6.22;;;1.83;;
46288;SDS011;32022;46.158;14.604;2022-07-06T08:16:20;5.15;;;1.73;;
46288;SDS011;32022;46.158;14.604;2022-07-06T08:18:45;7.90;;;1.73;;
46288;SDS011;32022;46.158;14.604;2022-07-06T08:21:11;8.87;;;1.77;;
46288;SDS011;32022;46.158;14.604;2022-07-06T08:23:36;7.03;;;1.55;;
46288;SDS011;32022;46.158;14.604;2022-07-06T08:26:02;7.55;;;1.63;;
46288;SDS011;32022;46.158;14.604;2022-07-06T08:28:27;3.30;;;1.35;;
46288;SDS011;32022;46.158;14.604;2022-07-06T08:30:52;5.22;;;1.60;;
46288;SDS011;32022;46.158;14.604;2022-07-06T08:33:19;3.67;;;1.38;;
46288;SDS011;32022;46.158;14.604;2022-07-06T08:35:44;4.65;;;1.50;;
46288;SDS011;32022;46.158;14.604;2022-07-06T08:38:10;4.43;;;1.33;;
46288;SDS011;32022;46.158;14.604;2022-07-06T08:40:35;3.90;;;1.73;;
46288;SDS011;32022;46.158;14.604;2022-07-06T08:43:02;5.30;;;1.52;;
46288;SDS011;32022;46.158;14.604;2022-07-06T08:45:28;3.22;;;1.40;;
46288;SDS011;32022;46.158;14.604;2022-07-06T08:47:54;4.22;;;1.50;;
46288;SDS011;32022;46.158;14.604;2022-07-06T08:50:20;4.90;;;1.38;;
46288;SDS011;32022;46.158;14.604;2022-07-06T08:52:46;3.47;;;1.33;;
46288;SDS011;32022;46.158;14.604;2022-07-06T08:55:12;3.90;;;1.30;;
46288;SDS011;32022;46.158;14.604;2022-07-06T08:57:37;5.47;;;1.70;;
46288;SDS011;32022;46.158;14.604;2022-07-06T09:00:05;3.22;;;1.30;;
46288;SDS011;32022;46.158;14.604;2022-07-06T09:02:31;3.97;;;1.45;;
46288;SDS011;32022;46.158;14.604;2022-07-06T09:04:56;4.07;;;1.48;;
46288;SDS011;32022;46.158;14.604;2022-07-06T09:07:27;2.78;;;1.10;;
46288;SDS011;32022;46.158;14.604;2022-07-06T09:09:56;3.78;;;1.40;;
46288;SDS011;32022;46.158;14.604;2022-07-06T09:12:26;4.13;;;1.08;;
46288;SDS011;32022;46.158;14.604;2022-07-06T09:14:51;2.88;;;1.30;;
46288;SDS011;32022;46.158;14.604;2022-07-06T09:17:19;4.35;;;1.38;;
46288;SDS011;32022;46.158;14.604;2022-07-06T09:19:44;3.60;;;1.20;;
46288;SDS011;32022;46.158;14.604;2022-07-06T09:22:10;3.90;;;1.15;;
46288;SDS011;32022;46.158;14.604;2022-07-06T09:24:49;4.15;;;1.20;;
46288;SDS011;32022;46.158;14.604;2022-07-06T09:27:15;2.78;;;1.00;;
46288;SDS011;32022;46.158;14.604;2022-07-06T09:29:42;2.72;;;1.10;;
46288;SDS011;32022;46.158;14.604;2022-07-06T09:32:07;2.67;;;1.27;;
46288;SDS011;32022;46.158;14.604;2022-07-06T09:34:45;4.67;;;1.27;;
46288;SDS011;32022;46.158;14.604;2022-07-06T09:37:10;3.15;;;1.00;;
46288;SDS011;32022;46.158;14.604;2022-07-06T09:39:36;3.03;;;1.17;;
46288;SDS011;32022;46.158;14.604;2022-07-06T09:42:02;3.35;;;1.23;;
46288;SDS011;32022;46.158;14.604;2022-07-06T09:44:37;3.35;;;1.20;;
46288;SDS011;32022;46.158;14.604;2022-07-06T09:47:03;3.17;;;1.15;;
46288;SDS011;32022;46.158;14.604;2022-07-06T09:49:29;2.88;;;0.90;;
46288;SDS011;32022;46.158;14.604;2022-07-06T09:51:55;3.03;;;1.10;;
46288;SDS011;32022;46.158;14.604;2022-07-06T09:54:21;2.35;;;0.90;;
46288;SDS011;32022;46.158;14.604;2022-07-06T09:56:47;2.78;;;0.90;;
46288;SDS011;32022;46.158;14.604;2022-07-06T09:59:21;2.80;;;0.82;;
46288;SDS011;32022;46.158;14.604;2022-07-06T10:01:48;2.60;;;0.93;;
46288;SDS011;32022;46.158;14.604;2022-07-06T10:04:15;2.55;;;0.90;;
46288;SDS011;32022;46.158;14.604;2022-07-06T10:06:43;1.50;;;0.80;;
46288;SDS011;32022;46.158;14.604;2022-07-06T10:09:09;2.45;;;0.93;;
46288;SDS011;32022;46.158;14.604;2022-07-06T10:11:37;3.45;;;1.23;;
46288;SDS011;32022;46.158;14.604;2022-07-06T10:14:03;1.83;;;0.75;;
46288;SDS011;32022;46.158;14.604;2022-07-06T10:16:29;2.95;;;1.00;;
46288;SDS011;32022;46.158;14.604;2022-07-06T10:18:55;3.05;;;1.00;;
46288;SDS011;32022;46.158;14.604;2022-07-06T10:21:23;2.97;;;0.85;;
46288;SDS011;32022;46.158;14.604;2022-07-06T10:23:49;2.05;;;0.80;;
46288;SDS011;32022;46.158;14.604;2022-07-06T10:26:15;3.05;;;0.90;;
46288;SDS011;32022;46.158;14.604;2022-07-06T10:28:41;2.35;;;0.80;;
46288;SDS011;32022;46.158;14.604;2022-07-06T10:31:06;1.63;;;0.70;;
46288;SDS011;32022;46.158;14.604;2022-07-06T10:33:32;1.02;;;0.57;;
46288;SDS011;32022;46.158;14.604;2022-07-06T10:35:58;1.42;;;0.60;;
46288;SDS011;32022;46.158;14.604;2022-07-06T10:38:33;1.40;;;0.50;;
46288;SDS011;32022;46.158;14.604;2022-07-06T10:41:06;1.80;;;0.70;;
46288;SDS011;32022;46.158;14.604;2022-07-06T10:43:38;1.35;;;0.60;;
46288;SDS011;32022;46.158;14.604;2022-07-06T10:46:16;1.08;;;0.43;;
46288;SDS011;32022;46.158;14.604;2022-07-06T10:48:48;1.25;;;0.60;;
46288;SDS011;32022;46.158;14.604;2022-07-06T10:51:24;1.67;;;0.70;;
46288;SDS011;32022;46.158;14.604;2022-07-06T10:53:56;1.77;;;0.80;;
46288;SDS011;32022;46.158;14.604;2022-07-06T10:56:31;1.45;;;0.80;;
46288;SDS011;32022;46.158;14.604;2022-07-06T10:58:56;3.17;;;1.10;;
46288;SDS011;32022;46.158;14.604;2022-07-06T11:01:27;2.22;;;0.80;;
46288;SDS011;32022;46.158;14.604;2022-07-06T11:06:24;1.95;;;0.82;;
46288;SDS011;32022;46.158;14.604;2022-07-06T11:13:50;1.98;;;0.80;;
46288;SDS011;32022;46.158;14.604;2022-07-06T11:16:16;1.35;;;0.70;;
46288;SDS011;32022;46.158;14.604;2022-07-06T11:18:45;1.80;;;0.70;;
46288;SDS011;32022;46.158;14.604;2022-07-06T11:23:42;1.80;;;0.85;;
46288;SDS011;32022;46.158;14.604;2022-07-06T11:26:08;1.55;;;0.70;;
46288;SDS011;32022;46.158;14.604;2022-07-06T11:28:33;1.17;;;0.60;;
46288;SDS011;32022;46.158;14.604;2022-07-06T11:30:59;1.35;;;0.60;;
46288;SDS011;32022;46.158;14.604;2022-07-06T11:33:31;1.13;;;0.50;;
46288;SDS011;32022;46.158;14.604;2022-07-06T11:38:36;1.70;;;0.70;;
46288;SDS011;32022;46.158;14.604;2022-07-06T11:41:02;0.63;;;0.50;;
46288;SDS011;32022;46.158;14.604;2022-07-06T11:43:27;1.03;;;0.50;;
46288;SDS011;32022;46.158;14.604;2022-07-06T11:45:52;1.20;;;0.60;;
46288;SDS011;32022;46.158;14.604;2022-07-06T11:48:17;1.20;;;0.60;;
46288;SDS011;32022;46.158;14.604;2022-07-06T11:50:42;0.90;;;0.50;;
46288;SDS011;32022;46.158;14.604;2022-07-06T11:53:08;0.80;;;0.57;;
46288;SDS011;32022;46.158;14.604;2022-07-06T11:55:33;0.80;;;0.50;;
46288;SDS011;32022;46.158;14.604;2022-07-06T11:57:58;1.73;;;0.80;;
46288;SDS011;32022;46.158;14.604;2022-07-06T12:00:25;1.35;;;0.60;;
46288;SDS011;32022;46.158;14.604;2022-07-06T12:03:00;1.23;;;0.70;;
46288;SDS011;32022;46.158;14.604;2022-07-06T12:05:29;1.83;;;0.73;;
46288;SDS011;32022;46.158;14.604;2022-07-06T12:08:07;1.42;;;0.63;;
46288;SDS011;32022;46.158;14.604;2022-07-06T12:10:34;2.50;;;0.82;;
46288;SDS011;32022;46.158;14.604;2022-07-06T12:13:03;4.40;;;1.10;;
46288;SDS011;32022;46.158;14.604;2022-07-06T12:15:29;3.38;;;1.10;;
46288;SDS011;32022;46.158;14.604;2022-07-06T12:17:54;2.70;;;1.10;;
46288;SDS011;32022;46.158;14.604;2022-07-06T12:20:20;2.22;;;1.00;;
46288;SDS011;32022;46.158;14.604;2022-07-06T12:22:45;2.07;;;0.90;;
46288;SDS011;32022;46.158;14.604;2022-07-06T12:25:10;3.73;;;0.90;;
46288;SDS011;32022;46.158;14.604;2022-07-06T12:27:35;1.67;;;0.90;;
46288;SDS011;32022;46.158;14.604;2022-07-06T12:30:10;1.80;;;0.80;;
46288;SDS011;32022;46.158;14.604;2022-07-06T12:32:35;1.30;;;0.70;;
46288;SDS011;32022;46.158;14.604;2022-07-06T12:35:04;2.10;;;0.70;;
46288;SDS011;32022;46.158;14.604;2022-07-06T12:37:30;1.77;;;0.70;;
46288;SDS011;32022;46.158;14.604;2022-07-06T12:39:55;1.52;;;0.70;;
46288;SDS011;32022;46.158;14.604;2022-07-06T12:42:20;2.15;;;0.88;;
46288;SDS011;32022;46.158;14.604;2022-07-06T12:44:51;1.20;;;0.60;;
46288;SDS011;32022;46.158;14.604;2022-07-06T12:47:22;1.77;;;0.85;;
46288;SDS011;32022;46.158;14.604;2022-07-06T12:49:49;2.17;;;0.60;;
46288;SDS011;32022;46.158;14.604;2022-07-06T12:52:15;1.35;;;0.70;;
46288;SDS011;32022;46.158;14.604;2022-07-06T12:54:49;2.10;;;0.90;;
46288;SDS011;32022;46.158;14.604;2022-07-06T12:57:16;1.45;;;0.70;;
46288;SDS011;32022;46.158;14.604;2022-07-06T12:59:45;0.85;;;0.50;;
46288;SDS011;32022;46.158;14.604;2022-07-06T13:02:24;1.25;;;0.60;;
46288;SDS011;32022;46.158;14.604;2022-07-06T13:05:00;1.58;;;0.60;;
46288;SDS011;32022;46.158;14.604;2022-07-06T13:07:26;1.42;;;0.65;;
46288;SDS011;32022;46.158;14.604;2022-07-06T13:09:51;1.42;;;0.70;;
46288;SDS011;32022;46.158;14.604;2022-07-06T13:12:16;1.88;;;0.50;;
46288;SDS011;32022;46.158;14.604;2022-07-06T13:14:42;1.30;;;0.50;;
46288;SDS011;32022;46.158;14.604;2022-07-06T13:17:07;1.00;;;0.60;;
46288;SDS011;32022;46.158;14.604;2022-07-06T13:19:32;0.90;;;0.50;;
46288;SDS011;32022;46.158;14.604;2022-07-06T13:21:58;1.63;;;0.70;;
46288;SDS011;32022;46.158;14.604;2022-07-06T13:24:23;1.57;;;0.70;;
46288;SDS011;32022;46.158;14.604;2022-07-06T13:26:48;1.10;;;0.55;;
46288;SDS011;32022;46.158;14.604;2022-07-06T13:29:14;1.00;;;0.60;;
46288;SDS011;32022;46.158;14.604;2022-07-06T13:31:39;1.98;;;0.70;;
46288;SDS011;32022;46.158;14.604;2022-07-06T13:34:04;1.48;;;0.73;;
46288;SDS011;32022;46.158;14.604;2022-07-06T13:36:30;1.15;;;0.65;;
46288;SDS011;32022;46.158;14.604;2022-07-06T13:38:55;1.38;;;0.65;;
46288;SDS011;32022;46.158;14.604;2022-07-06T13:41:21;1.17;;;0.70;;
46288;SDS011;32022;46.158;14.604;2022-07-06T13:43:46;1.10;;;0.60;;
46288;SDS011;32022;46.158;14.604;2022-07-06T13:46:11;1.73;;;0.52;;
46288;SDS011;32022;46.158;14.604;2022-07-06T13:48:37;1.40;;;0.60;;
46288;SDS011;32022;46.158;14.604;2022-07-06T13:51:02;1.40;;;0.60;;
46288;SDS011;32022;46.158;14.604;2022-07-06T13:53:27;1.63;;;0.60;;
46288;SDS011;32022;46.158;14.604;2022-07-06T13:55:52;2.60;;;0.60;;
46288;SDS011;32022;46.158;14.604;2022-07-06T13:58:18;1.08;;;0.57;;
46288;SDS011;32022;46.158;14.604;2022-07-06T14:00:44;0.98;;;0.65;;
46288;SDS011;32022;46.158;14.604;2022-07-06T14:03:09;1.47;;;0.73;;
46288;SDS011;32022;46.158;14.604;2022-07-06T14:05:34;1.98;;;0.70;;
46288;SDS011;32022;46.158;14.604;2022-07-06T14:08:00;1.02;;;0.50;;
46288;SDS011;32022;46.158;14.604;2022-07-06T14:10:25;1.30;;;0.63;;
46288;SDS011;32022;46.158;14.604;2022-07-06T14:12:51;0.70;;;0.50;;
46288;SDS011;32022;46.158;14.604;2022-07-06T14:15:17;1.48;;;0.70;;
46288;SDS011;32022;46.158;14.604;2022-07-06T14:17:42;1.00;;;0.55;;
46288;SDS011;32022;46.158;14.604;2022-07-06T14:20:07;0.90;;;0.50;;
46288;SDS011;32022;46.158;14.604;2022-07-06T14:22:33;0.88;;;0.55;;
46288;SDS011;32022;46.158;14.604;2022-07-06T14:24:59;1.20;;;0.60;;
46288;SDS011;32022;46.158;14.604;2022-07-06T14:27:24;1.42;;;0.60;;
46288;SDS011;32022;46.158;14.604;2022-07-06T14:29:49;1.00;;;0.50;;
46288;SDS011;32022;46.158;14.604;2022-07-06T14:32:15;0.93;;;0.60;;
46288;SDS011;32022;46.158;14.604;2022-07-06T14:34:40;1.55;;;0.70;;
46288;SDS011;32022;46.158;14.604;2022-07-06T14:37:05;1.17;;;0.60;;
46288;SDS011;32022;46.158;14.604;2022-07-06T14:39:30;1.33;;;0.67;;
46288;SDS011;32022;46.158;14.604;2022-07-06T14:41:56;1.17;;;0.65;;